Observations for WASHINGTON NATIONAL, VA (DCA)

KDCA 200652Z 20004KT 10SM CLR 04/M02 A3040 RMK AO2 SLP295 T00441022 
KDCA 200552Z 16007KT 10SM CLR 05/M03 A3041 RMK AO2 SLP298 T00501033 10083 20044 55002   
KDCA 200452Z 23003KT 10SM CLR 05/M07 A3041 RMK AO2 SLP297 T00501067 401220017   
KDCA 200352Z 17004KT 10SM CLR 06/M08 A3041 RMK AO2 SLP298 T00611083 
KDCA 200252Z 12003KT 10SM CLR 07/M09 A3042 RMK AO2 SLP301 T00721094 50005   
KDCA 200152Z 17005KT 10SM CLR 06/M07 A3043 RMK AO2 SLP302 T00611072 
KDCA 200052Z 13008KT 10SM CLR 08/M07 A3041 RMK AO2 SLP299 T00781072 
KDCA 192352Z 09008KT 10SM FEW250 08/M07 A3041 RMK AO2 SLP296 T00831067 10122 20083 53003
KDCA 192252Z 36006KT 10SM FEW250 10/M08 A3040 RMK AO2 SLP293 T01001083  
KDCA 192152Z 36008KT 10SM FEW250 11/M08 A3039 RMK AO2 SLP290 T01111083  
KDCA 192052Z 01006KT 10SM FEW070 FEW250 12/M09 A3040 RMK AO2 SLP293 T01171094 56020 
KDCA 191952Z 03006KT 10SM FEW070 SCT250 12/M09 A3041 RMK AO2 SLP299 T01171089   
KDCA 191852Z 00000KT 10SM FEW065 SCT250 11/M09 A3043 RMK AO2 SLP306 T01061094   
KDCA 191752Z 28006KT 10SM FEW050 11/M09 A3045 RMK AO2 SLP312 T01061094 10106 20033 58013
KDCA 191652Z 14006KT 10SM FEW050 09/M09 A3047 RMK AO2 SLP318 T00941094  
KDCA 191552Z 13003KT 10SM FEW045 08/M10 A3049 RMK AO2 SLP324 T00831100  
KDCA 191452Z 00000KT 10SM CLR 08/M10 A3049 RMK AO2 SLP326 T00781100 51014   
KDCA 191352Z 06006KT 10SM CLR 07/M07 A3049 RMK AO2 SLP323 T00671072 
KDCA 191252Z 04005KT 10SM CLR 06/M06 A3047 RMK AO2 SLP317 T00561061 
KDCA 191152Z 35004KT 10SM FEW230 03/M07 A3045 RMK AO2 SLP312 T00281072 10044 20017 51017
KDCA 191052Z 35005KT 10SM FEW200 02/M07 A3044 RMK AO2 SLP307 T00221067  
KDCA 190952Z 33005KT 10SM CLR 03/M09 A3043 RMK AO2 SLP302 T00281089 
KDCA 190852Z 33006KT 10SM CLR 03/M08 A3040 RMK AO2 SLP294 T00331083 55002   
KDCA 190752Z 34007KT 10SM FEW250 03/M08 A3040 RMK AO2 SLP293 T00331078  
KDCA 190652Z 34007KT 10SM FEW250 04/M08 A3040 RMK AO2 SLP292 T00391078